Time,TemperatureF,DewpointF,PressureIn,WindDirection,WindDirectionDegrees,WindSpeedMPH,WindSpeedGustMPH,Humidity,HourlyPrecipIn,Conditions,Clouds,dailyrainin,SoftwareType,DateUTC
2013-05-17 00:29:00,43.3,40.8,29.92,SSW,205,0.0,0.0,91,0.00,,---,0.00,VWS V14.00,2013-05-17 04:29:00,
2013-05-17 00:59:00,43.5,41.0,29.93,NE,53,0.0,0.0,91,0.00,,---,0.00,VWS V14.00,2013-05-17 04:59:00,
2013-05-17 01:29:00,43.6,40.9,29.93,WNW,284,0.0,0.0,90,0.00,,---,0.00,VWS V14.00,2013-05-17 05:29:00,
2013-05-17 01:59:00,42.3,40.2,29.93,West,260,0.0,2.0,92,0.00,,---,0.00,VWS V14.00,2013-05-17 05:59:00,
2013-05-17 02:29:00,41.4,39.8,29.95,WNW,295,2.0,3.0,94,0.00,,---,0.00,VWS V14.00,2013-05-17 06:29:00,
2013-05-17 02:59:00,41.9,40.8,29.95,WSW,248,2.0,4.0,96,0.00,,---,0.00,VWS V14.00,2013-05-17 06:59:00,
2013-05-17 03:29:00,41.5,39.9,29.97,NW,326,0.0,3.0,94,0.00,,---,0.00,VWS V14.00,2013-05-17 07:29:00,
2013-05-17 03:59:00,40.9,39.6,29.98,West,270,0.0,1.0,95,0.00,,---,0.00,VWS V14.00,2013-05-17 07:59:00,
2013-05-17 04:29:00,40.2,39.2,29.99,SSE,163,1.0,1.0,96,0.00,,---,0.00,VWS V14.00,2013-05-17 08:29:00,
2013-05-17 04:59:00,39.7,38.7,29.99,WNW,286,0.0,0.0,96,0.00,,---,0.00,VWS V14.00,2013-05-17 08:59:00,
2013-05-17 05:29:00,38.9,37.9,30.00,NNW,328,0.0,1.0,96,0.00,,---,0.00,VWS V14.00,2013-05-17 09:29:00,
2013-05-17 05:59:00,38.4,37.4,30.02,WSW,251,0.0,0.0,96,0.00,,---,0.00,VWS V14.00,2013-05-17 09:59:00,
2013-05-17 06:29:00,40.2,39.7,30.03,SSE,150,0.0,1.0,98,0.00,,---,0.00,VWS V14.00,2013-05-17 10:29:00,
2013-05-17 06:59:00,43.2,41.3,30.05,NE,34,1.0,3.0,93,0.00,,---,0.00,VWS V14.00,2013-05-17 10:59:00,
2013-05-17 07:29:00,45.5,42.5,30.05,West,272,3.0,7.0,89,0.00,,---,0.00,VWS V14.00,2013-05-17 11:29:00,
2013-05-17 07:59:00,48.1,44.1,30.07,West,277,3.0,4.0,86,0.00,,---,0.00,VWS V14.00,2013-05-17 11:59:00,
2013-05-17 08:29:00,51.0,44.7,30.08,WNW,294,2.0,2.0,79,0.00,,---,0.00,VWS V14.00,2013-05-17 12:29:00,
2013-05-17 08:59:00,52.9,44.5,30.08,WNW,302,2.0,7.0,73,0.00,,---,0.00,VWS V14.00,2013-05-17 12:59:00,
2013-05-17 09:29:00,55.6,46.7,30.09,NNE,33,2.0,2.0,72,0.00,,---,0.00,VWS V14.00,2013-05-17 13:29:00,
2013-05-17 09:59:00,57.6,46.3,30.09,WSW,253,0.0,4.0,66,0.00,,---,0.00,VWS V14.00,2013-05-17 13:59:00,
2013-05-17 10:29:00,58.5,42.4,30.09,SSE,155,5.0,6.0,55,0.00,,---,0.00,VWS V14.00,2013-05-17 14:29:00,
2013-05-17 10:59:00,59.4,40.2,30.10,WNW,289,0.0,2.0,49,0.00,,---,0.00,VWS V14.00,2013-05-17 14:59:00,
2013-05-17 11:29:00,60.6,42.4,30.10,South,174,1.0,5.0,51,0.00,,---,0.00,VWS V14.00,2013-05-17 15:29:00,
2013-05-17 11:59:00,62.7,41.1,30.10,NNE,26,5.0,5.0,45,0.00,,---,0.00,VWS V14.00,2013-05-17 15:59:00,
2013-05-17 12:29:00,64.5,37.7,30.09,West,260,7.0,9.0,37,0.00,,---,0.00,VWS V14.00,2013-05-17 16:29:00,
2013-05-17 12:59:00,63.9,37.8,30.09,SSW,209,1.0,6.0,38,0.00,,---,0.00,VWS V14.00,2013-05-17 16:59:00,
2013-05-17 13:29:00,64.7,36.4,30.09,NE,49,0.0,4.0,35,0.00,,---,0.00,VWS V14.00,2013-05-17 17:29:00,
2013-05-17 13:59:00,64.9,33.6,30.10,NE,42,3.0,8.0,31,0.00,,---,0.00,VWS V14.00,2013-05-17 17:59:00,
2013-05-17 14:29:00,65.3,34.7,30.09,SSW,192,3.0,5.0,32,0.00,,---,0.00,VWS V14.00,2013-05-17 18:29:00,
2013-05-17 14:59:00,66.7,35.9,30.10,NW,325,2.0,4.0,32,0.00,,---,0.00,VWS V14.00,2013-05-17 18:59:00,
2013-05-17 15:29:00,66.8,34.4,30.09,SE,146,0.0,2.0,30,0.00,,---,0.00,VWS V14.00,2013-05-17 19:29:00,
2013-05-17 15:59:00,63.4,36.7,30.10,East,91,5.0,7.0,37,0.00,,---,0.00,VWS V14.00,2013-05-17 19:59:00,
2013-05-17 16:29:00,61.3,38.6,30.11,ENE,60,2.0,7.0,43,0.00,,---,0.00,VWS V14.00,2013-05-17 20:29:00,
2013-05-17 16:59:00,60.9,38.3,30.12,NE,43,0.0,3.0,43,0.00,,---,0.00,VWS V14.00,2013-05-17 20:59:00,
2013-05-17 17:29:00,61.6,40.6,30.11,South,184,0.0,6.0,46,0.00,,---,0.00,VWS V14.00,2013-05-17 21:29:00,
2013-05-17 17:59:00,60.8,39.9,30.12,ENE,74,1.0,3.0,46,0.00,,---,0.00,VWS V14.00,2013-05-17 21:59:00,
2013-05-17 18:29:00,60.4,36.6,30.13,NE,38,1.0,4.0,41,0.00,,---,0.00,VWS V14.00,2013-05-17 22:29:00,
2013-05-17 18:59:00,58.7,43.1,30.14,East,85,3.0,6.0,56,0.00,,---,0.00,VWS V14.00,2013-05-17 22:59:00,
2013-05-17 19:29:00,56.8,44.3,30.15,East,83,3.0,4.0,63,0.00,,---,0.00,VWS V14.00,2013-05-17 23:29:00,
2013-05-17 19:59:00,55.6,44.4,30.16,ENE,67,0.0,1.0,66,0.00,,---,0.00,VWS V14.00,2013-05-17 23:59:00,
2013-05-17 20:29:00,54.1,44.2,30.17,NE,40,0.0,0.0,69,0.00,,---,0.00,VWS V14.00,2013-05-18 00:29:00,
2013-05-17 20:59:00,52.1,44.4,30.18,NNE,28,0.0,0.0,75,0.00,,---,0.00,VWS V14.00,2013-05-18 00:59:00,
2013-05-17 21:29:00,50.5,44.2,30.18,NNE,28,0.0,0.0,79,0.00,,---,0.00,VWS V14.00,2013-05-18 01:29:00,
2013-05-17 21:59:00,48.9,44.0,30.19,NNE,28,0.0,0.0,83,0.00,,---,0.00,VWS V14.00,2013-05-18 01:59:00,
2013-05-17 22:29:00,47.2,42.9,30.19,NNE,28,0.0,0.0,85,0.00,,---,0.00,VWS V14.00,2013-05-18 02:29:00,
2013-05-17 22:59:00,46.0,42.7,30.20,NNE,28,0.0,0.0,88,0.00,,---,0.00,VWS V14.00,2013-05-18 02:59:00,
2013-05-17 23:29:00,45.5,42.7,30.20,NNE,28,0.0,0.0,90,0.00,,---,0.00,VWS V14.00,2013-05-18 03:29:00,
2013-05-17 23:59:00,44.5,42.0,30.21,NNE,28,0.0,0.0,91,0.00,,---,0.00,VWS V14.00,2013-05-18 03:59:00,